This is the latest recevied weather packets stored in our database for station/object CE3JSG-13. If no packets are shown the sender has not sent any weather packets the latest 10 day(s).
| Time | Temp. | Humidity | Pressure | Rain* | Wind** | Luminosity | Snow |
|---|---|---|---|---|---|---|---|
| 1777823536 | 23.33° C | 33% | 1015.1 hPa | - | - | - | - |
| 1777823116 | 23.33° C | 35% | 1015.9 hPa | - | - | - | - |
| 1777822696 | 23.33° C | 34% | 1016.6 hPa | - | - | - | - |
| 1777822276 | 23.33° C | 34% | 1015.3 hPa | - | - | - | - |
| 1777821856 | 23.33° C | 36% | 1014.9 hPa | - | - | - | - |
| 1777821436 | 22.78° C | 38% | 1015.4 hPa | - | - | - | - |
| 1777821016 | 22.22° C | 38% | 1015.9 hPa | - | - | - | - |
| 1777820595 | 21.67° C | 40% | 1016.4 hPa | - | - | - | - |
| 1777820176 | 21.67° C | 42% | 1015.6 hPa | - | - | - | - |
| 1777819756 | 20.56° C | 41% | 1015.7 hPa | - | - | - | - |
| 1777819336 | 20° C | 45% | 1015.5 hPa | - | - | - | - |
| 1777818916 | 19.44° C | 46% | 1018.2 hPa | - | - | - | - |
| 1777818496 | 20° C | 45% | 1016.2 hPa | - | - | - | - |
| 1777818076 | 18.89° C | 49% | 1016.8 hPa | - | - | - | - |
| 1777817656 | 18.89° C | 49% | 1016.6 hPa | - | - | - | - |
| 1777817236 | 17.78° C | 50% | 1017.7 hPa | - | - | - | - |
| 1777816816 | 17.78° C | 52% | 1017.1 hPa | - | - | - | - |
| 1777816396 | 17.22° C | 52% | 1017.6 hPa | - | - | - | - |
| 1777815976 | 17.22° C | 54% | 1017.2 hPa | - | - | - | - |
| 1777815556 | 16.67° C | 54% | 1016.9 hPa | - | - | - | - |
| 1777815136 | 16.11° C | 57% | 1017.8 hPa | - | - | - | - |
| 1777814716 | 16.11° C | 59% | 1017.8 hPa | - | - | - | - |
| 1777814296 | 15.56° C | 60% | 1017.6 hPa | - | - | - | - |
| 1777813876 | 15° C | 61% | 1018.2 hPa | - | - | - | - |
| 1777813456 | 15° C | 63% | 1018.2 hPa | - | - | - | - |
* Rain since midnight (hover to see other rain measurements)
** Current wind speed in m/s (hover to see current wind gust speed)